This is the latest recevied weather packets stored in our database for station/object DO2MIB-1. If no packets are shown the sender has not sent any weather packets the latest 10 day(s).
| Time | Temp. | Humidity | Pressure | Rain* | Wind** | Luminosity | Snow |
|---|---|---|---|---|---|---|---|
| 1778277008 | 25° C | 31% | 0 hPa | - | 0 m/s | - | - |
| 1778276975 | 25° C | 30% | 0 hPa | - | 0 m/s | - | - |
| 1778276743 | 25.56° C | 30% | 0 hPa | - | 0 m/s | - | - |
| 1778276594 | 25.56° C | 31% | 0 hPa | - | 0 m/s | - | - |
| 1778276561 | 24.44° C | 31% | 0 hPa | - | 0 m/s | - | - |
| 1778276445 | 25.56° C | 33% | 0 hPa | - | 0 m/s | - | - |
| 1778276379 | 24.44° C | 32% | 0 hPa | - | 0 m/s | - | - |
| 1778276230 | 24.44° C | 33% | 0 hPa | - | 0 m/s | - | - |
| 1778276131 | 22.78° C | 32% | 0 hPa | - | 0 m/s | - | - |
| 1778276114 | 25° C | 32% | 0 hPa | - | 0 m/s | - | - |
| 1778276081 | 25° C | 31% | 0 hPa | - | 0 m/s | - | - |
| 1778275799 | 21.67° C | 34% | 0 hPa | - | 0 m/s | - | - |
| 1778275568 | 24.44° C | 32% | 0 hPa | - | 0 m/s | - | - |
| 1778275303 | 25° C | 34% | 0 hPa | - | 0 m/s | - | - |
| 1778275270 | 24.44° C | 33% | 0 hPa | - | 0 m/s | - | - |
| 1778275220 | 25.56° C | 34% | 0 hPa | - | 0 m/s | - | - |
| 1778274889 | 22.22° C | 100% | 0 hPa | - | 0 m/s | - | - |
| 1778274608 | 25.56° C | 33% | 0 hPa | - | 0 m/s | - | - |
| 1778274575 | 25.56° C | 34% | 0 hPa | - | 0 m/s | - | - |
| 1778274542 | 25° C | 34% | 0 hPa | - | 0 m/s | - | - |
| 1778274459 | 25° C | 34% | 0 hPa | - | 0 m/s | - | - |
| 1778274327 | 24.44° C | 34% | 0 hPa | - | 0 m/s | - | - |
| 1778274294 | 23.33° C | 34% | 0 hPa | - | 0 m/s | - | - |
| 1778274244 | 25° C | 34% | 0 hPa | - | 0 m/s | - | - |
| 1778274095 | 25.56° C | 33% | 0 hPa | - | 0 m/s | - | - |
* Rain since midnight (hover to see other rain measurements)
** Current wind speed in m/s (hover to see current wind gust speed)